sensor_id;sensor_type;location;lat;lon;timestamp;P1;durP1;ratioP1;P2;durP2;ratioP2
4448;SDS011;2237;51.870;6.160;2022-11-23T00:02:11;5.03;;;1.70;;
4448;SDS011;2237;51.870;6.160;2022-11-23T00:04:38;3.15;;;1.70;;
4448;SDS011;2237;51.870;6.160;2022-11-23T00:07:04;5.90;;;2.03;;
4448;SDS011;2237;51.870;6.160;2022-11-23T00:09:30;3.90;;;1.67;;
4448;SDS011;2237;51.870;6.160;2022-11-23T00:11:57;7.30;;;2.22;;
4448;SDS011;2237;51.870;6.160;2022-11-23T00:14:23;4.68;;;1.83;;
4448;SDS011;2237;51.870;6.160;2022-11-23T00:16:49;4.93;;;2.10;;
4448;SDS011;2237;51.870;6.160;2022-11-23T00:19:16;4.88;;;2.00;;
4448;SDS011;2237;51.870;6.160;2022-11-23T00:21:42;4.35;;;2.13;;
4448;SDS011;2237;51.870;6.160;2022-11-23T00:24:10;6.88;;;2.70;;
4448;SDS011;2237;51.870;6.160;2022-11-23T00:26:38;7.78;;;2.20;;
4448;SDS011;2237;51.870;6.160;2022-11-23T00:29:04;5.38;;;2.60;;
4448;SDS011;2237;51.870;6.160;2022-11-23T00:31:30;8.25;;;2.75;;
4448;SDS011;2237;51.870;6.160;2022-11-23T00:33:57;4.80;;;2.00;;
4448;SDS011;2237;51.870;6.160;2022-11-23T00:36:24;6.90;;;2.45;;
4448;SDS011;2237;51.870;6.160;2022-11-23T00:38:51;8.70;;;2.50;;
4448;SDS011;2237;51.870;6.160;2022-11-23T00:41:23;8.77;;;2.70;;
4448;SDS011;2237;51.870;6.160;2022-11-23T00:43:51;9.88;;;2.65;;
4448;SDS011;2237;51.870;6.160;2022-11-23T00:48:46;8.77;;;2.83;;
4448;SDS011;2237;51.870;6.160;2022-11-23T00:51:14;8.63;;;3.20;;
4448;SDS011;2237;51.870;6.160;2022-11-23T00:53:42;10.98;;;3.50;;
4448;SDS011;2237;51.870;6.160;2022-11-23T00:56:09;11.00;;;3.15;;
4448;SDS011;2237;51.870;6.160;2022-11-23T00:58:36;11.35;;;3.13;;
4448;SDS011;2237;51.870;6.160;2022-11-23T01:01:09;9.63;;;3.63;;
4448;SDS011;2237;51.870;6.160;2022-11-23T01:03:37;8.95;;;3.50;;
4448;SDS011;2237;51.870;6.160;2022-11-23T01:06:22;6.57;;;2.97;;
4448;SDS011;2237;51.870;6.160;2022-11-23T01:08:52;7.43;;;3.90;;
4448;SDS011;2237;51.870;6.160;2022-11-23T01:11:20;7.80;;;2.50;;
4448;SDS011;2237;51.870;6.160;2022-11-23T01:13:48;8.30;;;3.70;;
4448;SDS011;2237;51.870;6.160;2022-11-23T01:16:16;8.13;;;3.28;;
4448;SDS011;2237;51.870;6.160;2022-11-23T01:18:52;15.25;;;3.45;;
4448;SDS011;2237;51.870;6.160;2022-11-23T01:21:30;4.50;;;2.38;;
4448;SDS011;2237;51.870;6.160;2022-11-23T01:23:57;7.82;;;3.20;;
4448;SDS011;2237;51.870;6.160;2022-11-23T01:26:24;6.72;;;2.60;;
4448;SDS011;2237;51.870;6.160;2022-11-23T01:28:50;8.18;;;2.58;;
4448;SDS011;2237;51.870;6.160;2022-11-23T01:31:18;10.48;;;2.80;;
4448;SDS011;2237;51.870;6.160;2022-11-23T01:33:46;12.32;;;2.50;;
4448;SDS011;2237;51.870;6.160;2022-11-23T01:36:16;12.43;;;3.00;;
4448;SDS011;2237;51.870;6.160;2022-11-23T01:38:45;9.05;;;2.88;;
4448;SDS011;2237;51.870;6.160;2022-11-23T01:41:14;8.98;;;2.97;;
4448;SDS011;2237;51.870;6.160;2022-11-23T01:43:51;9.93;;;2.53;;
4448;SDS011;2237;51.870;6.160;2022-11-23T01:46:18;12.05;;;2.38;;
4448;SDS011;2237;51.870;6.160;2022-11-23T01:48:55;7.90;;;3.22;;
4448;SDS011;2237;51.870;6.160;2022-11-23T01:53:58;9.10;;;2.58;;
4448;SDS011;2237;51.870;6.160;2022-11-23T01:56:29;4.78;;;2.17;;
4448;SDS011;2237;51.870;6.160;2022-11-23T01:58:58;6.33;;;2.13;;
4448;SDS011;2237;51.870;6.160;2022-11-23T02:01:27;7.20;;;1.80;;
4448;SDS011;2237;51.870;6.160;2022-11-23T02:03:54;5.88;;;2.03;;
4448;SDS011;2237;51.870;6.160;2022-11-23T02:06:21;4.10;;;1.52;;
4448;SDS011;2237;51.870;6.160;2022-11-23T02:08:48;5.50;;;1.73;;
4448;SDS011;2237;51.870;6.160;2022-11-23T02:11:16;7.65;;;2.30;;
4448;SDS011;2237;51.870;6.160;2022-11-23T02:13:43;6.70;;;1.67;;
4448;SDS011;2237;51.870;6.160;2022-11-23T02:16:10;12.75;;;2.33;;
4448;SDS011;2237;51.870;6.160;2022-11-23T02:18:40;6.03;;;2.63;;
4448;SDS011;2237;51.870;6.160;2022-11-23T02:21:09;7.68;;;1.42;;
4448;SDS011;2237;51.870;6.160;2022-11-23T02:26:07;6.78;;;1.45;;
4448;SDS011;2237;51.870;6.160;2022-11-23T02:28:38;5.57;;;1.13;;
4448;SDS011;2237;51.870;6.160;2022-11-23T02:31:09;9.07;;;1.73;;
4448;SDS011;2237;51.870;6.160;2022-11-23T02:33:38;6.80;;;1.98;;
4448;SDS011;2237;51.870;6.160;2022-11-23T02:38:53;9.05;;;1.90;;
4448;SDS011;2237;51.870;6.160;2022-11-23T02:41:21;7.30;;;1.75;;
4448;SDS011;2237;51.870;6.160;2022-11-23T02:43:47;8.00;;;1.90;;
4448;SDS011;2237;51.870;6.160;2022-11-23T02:46:19;8.13;;;1.25;;
4448;SDS011;2237;51.870;6.160;2022-11-23T02:48:46;6.50;;;1.50;;
4448;SDS011;2237;51.870;6.160;2022-11-23T02:51:12;8.20;;;1.30;;
4448;SDS011;2237;51.870;6.160;2022-11-23T02:53:39;10.07;;;1.95;;
4448;SDS011;2237;51.870;6.160;2022-11-23T02:56:05;6.25;;;1.77;;
4448;SDS011;2237;51.870;6.160;2022-11-23T02:58:31;7.28;;;1.55;;
4448;SDS011;2237;51.870;6.160;2022-11-23T03:00:58;6.05;;;1.67;;
4448;SDS011;2237;51.870;6.160;2022-11-23T03:03:24;6.22;;;1.73;;
4448;SDS011;2237;51.870;6.160;2022-11-23T03:05:50;6.35;;;1.25;;
4448;SDS011;2237;51.870;6.160;2022-11-23T03:08:17;7.38;;;1.63;;
4448;SDS011;2237;51.870;6.160;2022-11-23T03:10:43;6.22;;;1.50;;
4448;SDS011;2237;51.870;6.160;2022-11-23T03:13:09;12.02;;;1.60;;
4448;SDS011;2237;51.870;6.160;2022-11-23T03:15:36;8.60;;;2.17;;
4448;SDS011;2237;51.870;6.160;2022-11-23T03:18:02;8.02;;;1.67;;
4448;SDS011;2237;51.870;6.160;2022-11-23T03:20:28;8.20;;;1.77;;
4448;SDS011;2237;51.870;6.160;2022-11-23T03:22:55;10.80;;;1.95;;
4448;SDS011;2237;51.870;6.160;2022-11-23T03:25:21;7.82;;;1.77;;
4448;SDS011;2237;51.870;6.160;2022-11-23T03:27:47;7.22;;;1.42;;
4448;SDS011;2237;51.870;6.160;2022-11-23T03:30:14;5.88;;;1.60;;
4448;SDS011;2237;51.870;6.160;2022-11-23T03:32:40;6.57;;;1.60;;
4448;SDS011;2237;51.870;6.160;2022-11-23T03:35:07;5.82;;;1.80;;
4448;SDS011;2237;51.870;6.160;2022-11-23T03:37:33;9.27;;;1.83;;
4448;SDS011;2237;51.870;6.160;2022-11-23T03:40:00;8.18;;;1.90;;
4448;SDS011;2237;51.870;6.160;2022-11-23T03:42:26;7.93;;;1.63;;
4448;SDS011;2237;51.870;6.160;2022-11-23T03:44:53;7.88;;;1.65;;
4448;SDS011;2237;51.870;6.160;2022-11-23T03:47:19;8.68;;;1.48;;
4448;SDS011;2237;51.870;6.160;2022-11-23T03:49:45;6.72;;;1.63;;
4448;SDS011;2237;51.870;6.160;2022-11-23T03:52:12;5.72;;;1.65;;
4448;SDS011;2237;51.870;6.160;2022-11-23T03:54:38;9.30;;;2.25;;
4448;SDS011;2237;51.870;6.160;2022-11-23T03:57:05;3.58;;;1.30;;
4448;SDS011;2237;51.870;6.160;2022-11-23T03:59:31;7.00;;;1.55;;
4448;SDS011;2237;51.870;6.160;2022-11-23T04:01:57;12.52;;;1.65;;
4448;SDS011;2237;51.870;6.160;2022-11-23T04:04:24;7.03;;;1.92;;
4448;SDS011;2237;51.870;6.160;2022-11-23T04:06:50;5.63;;;2.17;;
4448;SDS011;2237;51.870;6.160;2022-11-23T04:09:16;13.02;;;1.92;;
4448;SDS011;2237;51.870;6.160;2022-11-23T04:11:43;6.18;;;1.58;;
4448;SDS011;2237;51.870;6.160;2022-11-23T04:14:09;6.07;;;1.48;;
4448;SDS011;2237;51.870;6.160;2022-11-23T04:16:35;9.60;;;1.73;;
4448;SDS011;2237;51.870;6.160;2022-11-23T04:19:02;6.90;;;2.17;;
4448;SDS011;2237;51.870;6.160;2022-11-23T04:21:28;7.85;;;1.30;;
4448;SDS011;2237;51.870;6.160;2022-11-23T04:23:54;7.72;;;1.90;;
4448;SDS011;2237;51.870;6.160;2022-11-23T04:26:20;7.55;;;1.25;;
4448;SDS011;2237;51.870;6.160;2022-11-23T04:28:47;8.95;;;1.35;;
4448;SDS011;2237;51.870;6.160;2022-11-23T04:31:13;12.15;;;1.90;;
4448;SDS011;2237;51.870;6.160;2022-11-23T04:33:39;11.48;;;2.08;;
4448;SDS011;2237;51.870;6.160;2022-11-23T04:36:06;8.02;;;1.52;;
4448;SDS011;2237;51.870;6.160;2022-11-23T04:38:32;7.55;;;2.10;;
4448;SDS011;2237;51.870;6.160;2022-11-23T04:40:59;7.20;;;1.35;;
4448;SDS011;2237;51.870;6.160;2022-11-23T04:43:25;4.47;;;1.30;;
4448;SDS011;2237;51.870;6.160;2022-11-23T04:45:51;5.82;;;1.67;;
4448;SDS011;2237;51.870;6.160;2022-11-23T04:48:18;5.75;;;1.48;;
4448;SDS011;2237;51.870;6.160;2022-11-23T04:50:44;5.18;;;1.60;;
4448;SDS011;2237;51.870;6.160;2022-11-23T04:53:12;6.72;;;1.58;;
4448;SDS011;2237;51.870;6.160;2022-11-23T04:55:38;10.10;;;1.50;;
4448;SDS011;2237;51.870;6.160;2022-11-23T04:58:05;8.60;;;1.90;;
4448;SDS011;2237;51.870;6.160;2022-11-23T05:00:31;10.52;;;2.28;;
4448;SDS011;2237;51.870;6.160;2022-11-23T05:02:58;8.38;;;1.88;;
4448;SDS011;2237;51.870;6.160;2022-11-23T05:05:25;5.50;;;0.90;;
4448;SDS011;2237;51.870;6.160;2022-11-23T05:07:52;5.72;;;1.80;;
4448;SDS011;2237;51.870;6.160;2022-11-23T05:10:18;7.75;;;2.50;;
4448;SDS011;2237;51.870;6.160;2022-11-23T05:12:45;10.60;;;3.05;;
4448;SDS011;2237;51.870;6.160;2022-11-23T05:15:11;14.45;;;3.05;;
4448;SDS011;2237;51.870;6.160;2022-11-23T05:17:41;9.03;;;2.40;;
4448;SDS011;2237;51.870;6.160;2022-11-23T05:20:08;8.05;;;2.40;;
4448;SDS011;2237;51.870;6.160;2022-11-23T05:22:35;12.38;;;2.65;;
4448;SDS011;2237;51.870;6.160;2022-11-23T05:25:01;9.68;;;2.72;;
4448;SDS011;2237;51.870;6.160;2022-11-23T05:27:27;9.02;;;3.05;;
4448;SDS011;2237;51.870;6.160;2022-11-23T05:29:54;15.52;;;3.80;;
4448;SDS011;2237;51.870;6.160;2022-11-23T05:32:20;6.55;;;2.33;;
4448;SDS011;2237;51.870;6.160;2022-11-23T05:34:47;12.15;;;2.85;;
4448;SDS011;2237;51.870;6.160;2022-11-23T05:37:13;10.43;;;2.05;;
4448;SDS011;2237;51.870;6.160;2022-11-23T05:39:39;7.55;;;1.98;;
4448;SDS011;2237;51.870;6.160;2022-11-23T05:42:05;8.73;;;2.00;;
4448;SDS011;2237;51.870;6.160;2022-11-23T05:44:32;9.45;;;1.77;;
4448;SDS011;2237;51.870;6.160;2022-11-23T05:46:58;8.35;;;2.28;;
4448;SDS011;2237;51.870;6.160;2022-11-23T05:49:25;10.13;;;1.42;;
4448;SDS011;2237;51.870;6.160;2022-11-23T05:51:51;8.15;;;1.80;;
4448;SDS011;2237;51.870;6.160;2022-11-23T05:54:18;11.23;;;1.98;;
4448;SDS011;2237;51.870;6.160;2022-11-23T05:56:44;10.38;;;2.40;;
4448;SDS011;2237;51.870;6.160;2022-11-23T05:59:11;14.70;;;2.20;;
4448;SDS011;2237;51.870;6.160;2022-11-23T06:01:38;7.07;;;1.40;;
4448;SDS011;2237;51.870;6.160;2022-11-23T06:04:04;10.10;;;1.60;;
4448;SDS011;2237;51.870;6.160;2022-11-23T06:06:31;12.23;;;2.20;;
4448;SDS011;2237;51.870;6.160;2022-11-23T06:08:58;17.17;;;2.67;;
4448;SDS011;2237;51.870;6.160;2022-11-23T06:11:24;7.03;;;1.90;;
4448;SDS011;2237;51.870;6.160;2022-11-23T06:13:50;7.93;;;1.80;;
4448;SDS011;2237;51.870;6.160;2022-11-23T06:16:17;11.23;;;1.67;;
4448;SDS011;2237;51.870;6.160;2022-11-23T06:18:43;8.82;;;1.42;;
4448;SDS011;2237;51.870;6.160;2022-11-23T06:21:09;8.00;;;1.80;;
4448;SDS011;2237;51.870;6.160;2022-11-23T06:23:36;5.85;;;1.13;;
4448;SDS011;2237;51.870;6.160;2022-11-23T06:26:02;8.82;;;1.40;;
4448;SDS011;2237;51.870;6.160;2022-11-23T06:28:29;10.30;;;2.38;;
4448;SDS011;2237;51.870;6.160;2022-11-23T06:30:55;11.68;;;2.20;;
4448;SDS011;2237;51.870;6.160;2022-11-23T06:33:26;10.75;;;1.85;;
4448;SDS011;2237;51.870;6.160;2022-11-23T06:35:56;3.38;;;0.93;;
4448;SDS011;2237;51.870;6.160;2022-11-23T06:38:24;11.57;;;2.20;;
4448;SDS011;2237;51.870;6.160;2022-11-23T06:40:51;12.77;;;2.33;;
4448;SDS011;2237;51.870;6.160;2022-11-23T06:43:17;9.23;;;1.77;;
4448;SDS011;2237;51.870;6.160;2022-11-23T06:45:43;10.02;;;1.80;;
4448;SDS011;2237;51.870;6.160;2022-11-23T06:48:10;14.15;;;2.55;;
4448;SDS011;2237;51.870;6.160;2022-11-23T06:50:36;6.30;;;1.98;;
4448;SDS011;2237;51.870;6.160;2022-11-23T06:53:02;9.30;;;2.85;;
4448;SDS011;2237;51.870;6.160;2022-11-23T06:55:29;13.77;;;2.38;;
4448;SDS011;2237;51.870;6.160;2022-11-23T06:57:55;7.35;;;1.60;;
4448;SDS011;2237;51.870;6.160;2022-11-23T07:00:22;14.00;;;2.72;;
4448;SDS011;2237;51.870;6.160;2022-11-23T07:02:52;13.60;;;3.58;;
4448;SDS011;2237;51.870;6.160;2022-11-23T07:05:19;15.02;;;2.15;;
4448;SDS011;2237;51.870;6.160;2022-11-23T07:07:47;12.80;;;2.28;;
4448;SDS011;2237;51.870;6.160;2022-11-23T07:10:13;11.40;;;1.45;;
4448;SDS011;2237;51.870;6.160;2022-11-23T07:12:40;17.08;;;2.05;;
4448;SDS011;2237;51.870;6.160;2022-11-23T07:15:07;10.68;;;1.90;;
4448;SDS011;2237;51.870;6.160;2022-11-23T07:17:38;15.38;;;1.55;;
4448;SDS011;2237;51.870;6.160;2022-11-23T07:22:34;10.50;;;2.10;;
4448;SDS011;2237;51.870;6.160;2022-11-23T07:25:00;9.85;;;2.53;;
4448;SDS011;2237;51.870;6.160;2022-11-23T07:27:27;8.43;;;1.63;;
4448;SDS011;2237;51.870;6.160;2022-11-23T07:29:53;8.13;;;1.50;;
4448;SDS011;2237;51.870;6.160;2022-11-23T07:32:19;9.80;;;1.75;;
4448;SDS011;2237;51.870;6.160;2022-11-23T07:34:46;7.82;;;1.50;;
4448;SDS011;2237;51.870;6.160;2022-11-23T07:37:12;7.30;;;1.65;;
4448;SDS011;2237;51.870;6.160;2022-11-23T07:39:38;9.27;;;1.70;;
4448;SDS011;2237;51.870;6.160;2022-11-23T07:42:22;13.52;;;1.60;;
4448;SDS011;2237;51.870;6.160;2022-11-23T07:45:08;11.60;;;2.15;;
4448;SDS011;2237;51.870;6.160;2022-11-23T07:47:35;10.23;;;1.50;;
4448;SDS011;2237;51.870;6.160;2022-11-23T07:50:03;14.02;;;1.95;;
4448;SDS011;2237;51.870;6.160;2022-11-23T07:52:31;12.63;;;1.70;;
4448;SDS011;2237;51.870;6.160;2022-11-23T07:54:57;9.52;;;2.30;;
4448;SDS011;2237;51.870;6.160;2022-11-23T07:57:25;6.32;;;1.30;;
4448;SDS011;2237;51.870;6.160;2022-11-23T07:59:52;13.15;;;1.73;;
4448;SDS011;2237;51.870;6.160;2022-11-23T08:02:18;12.93;;;1.75;;
4448;SDS011;2237;51.870;6.160;2022-11-23T08:04:45;12.90;;;1.58;;
4448;SDS011;2237;51.870;6.160;2022-11-23T08:07:12;13.98;;;1.60;;
4448;SDS011;2237;51.870;6.160;2022-11-23T08:09:38;12.27;;;1.92;;
4448;SDS011;2237;51.870;6.160;2022-11-23T08:12:05;8.70;;;1.35;;
4448;SDS011;2237;51.870;6.160;2022-11-23T08:14:32;9.55;;;1.63;;
4448;SDS011;2237;51.870;6.160;2022-11-23T08:16:59;9.80;;;1.33;;
4448;SDS011;2237;51.870;6.160;2022-11-23T08:19:26;8.50;;;1.13;;
4448;SDS011;2237;51.870;6.160;2022-11-23T08:21:52;10.52;;;2.00;;
4448;SDS011;2237;51.870;6.160;2022-11-23T08:24:18;9.82;;;2.03;;
4448;SDS011;2237;51.870;6.160;2022-11-23T08:26:45;10.88;;;2.17;;
4448;SDS011;2237;51.870;6.160;2022-11-23T08:29:11;9.93;;;1.48;;
4448;SDS011;2237;51.870;6.160;2022-11-23T08:31:38;9.00;;;1.48;;
4448;SDS011;2237;51.870;6.160;2022-11-23T08:34:04;16.10;;;2.00;;
4448;SDS011;2237;51.870;6.160;2022-11-23T08:36:31;9.27;;;2.20;;
4448;SDS011;2237;51.870;6.160;2022-11-23T08:38:58;14.75;;;1.70;;
4448;SDS011;2237;51.870;6.160;2022-11-23T08:41:24;11.30;;;1.98;;
4448;SDS011;2237;51.870;6.160;2022-11-23T08:43:50;8.43;;;1.95;;
4448;SDS011;2237;51.870;6.160;2022-11-23T08:46:17;8.32;;;1.02;;
4448;SDS011;2237;51.870;6.160;2022-11-23T08:48:44;8.98;;;1.95;;
4448;SDS011;2237;51.870;6.160;2022-11-23T08:51:10;13.02;;;1.73;;
4448;SDS011;2237;51.870;6.160;2022-11-23T08:53:37;8.73;;;1.33;;
4448;SDS011;2237;51.870;6.160;2022-11-23T08:56:04;6.85;;;1.23;;
4448;SDS011;2237;51.870;6.160;2022-11-23T08:58:32;5.65;;;1.38;;
4448;SDS011;2237;51.870;6.160;2022-11-23T09:00:58;6.70;;;1.25;;
4448;SDS011;2237;51.870;6.160;2022-11-23T09:03:24;10.15;;;1.60;;
4448;SDS011;2237;51.870;6.160;2022-11-23T09:05:51;6.88;;;1.20;;
4448;SDS011;2237;51.870;6.160;2022-11-23T09:08:19;9.65;;;1.67;;
4448;SDS011;2237;51.870;6.160;2022-11-23T09:10:45;7.40;;;1.48;;
4448;SDS011;2237;51.870;6.160;2022-11-23T09:13:12;10.68;;;2.08;;
4448;SDS011;2237;51.870;6.160;2022-11-23T09:15:38;13.95;;;2.65;;
4448;SDS011;2237;51.870;6.160;2022-11-23T09:18:04;7.38;;;1.02;;
4448;SDS011;2237;51.870;6.160;2022-11-23T09:20:31;8.30;;;1.98;;
4448;SDS011;2237;51.870;6.160;2022-11-23T09:22:57;9.63;;;1.80;;
4448;SDS011;2237;51.870;6.160;2022-11-23T09:25:23;4.97;;;1.23;;
4448;SDS011;2237;51.870;6.160;2022-11-23T09:27:55;5.85;;;1.15;;
4448;SDS011;2237;51.870;6.160;2022-11-23T09:30:22;7.40;;;1.23;;
4448;SDS011;2237;51.870;6.160;2022-11-23T09:32:48;6.07;;;0.93;;
4448;SDS011;2237;51.870;6.160;2022-11-23T09:35:15;5.30;;;0.93;;
4448;SDS011;2237;51.870;6.160;2022-11-23T09:37:41;6.13;;;1.55;;
4448;SDS011;2237;51.870;6.160;2022-11-23T09:40:08;12.15;;;2.30;;
4448;SDS011;2237;51.870;6.160;2022-11-23T09:48:23;4.53;;;0.82;;
4448;SDS011;2237;51.870;6.160;2022-11-23T09:51:15;7.55;;;1.70;;
4448;SDS011;2237;51.870;6.160;2022-11-23T09:53:45;11.50;;;4.32;;
4448;SDS011;2237;51.870;6.160;2022-11-23T09:56:49;12.32;;;1.58;;
4448;SDS011;2237;51.870;6.160;2022-11-23T09:59:35;16.15;;;3.13;;
4448;SDS011;2237;51.870;6.160;2022-11-23T10:02:16;7.60;;;1.10;;
4448;SDS011;2237;51.870;6.160;2022-11-23T10:04:46;9.95;;;1.23;;
4448;SDS011;2237;51.870;6.160;2022-11-23T10:12:38;8.35;;;1.10;;
4448;SDS011;2237;51.870;6.160;2022-11-23T10:15:27;9.13;;;1.08;;
4448;SDS011;2237;51.870;6.160;2022-11-23T10:18:05;6.07;;;1.77;;
4448;SDS011;2237;51.870;6.160;2022-11-23T10:26:20;6.20;;;1.83;;
4448;SDS011;2237;51.870;6.160;2022-11-23T10:28:51;2.53;;;1.00;;
4448;SDS011;2237;51.870;6.160;2022-11-23T10:31:22;1.67;;;0.68;;
4448;SDS011;2237;51.870;6.160;2022-11-23T10:33:53;4.05;;;0.85;;
4448;SDS011;2237;51.870;6.160;2022-11-23T10:36:20;10.02;;;1.23;;
4448;SDS011;2237;51.870;6.160;2022-11-23T10:38:51;10.70;;;3.30;;
4448;SDS011;2237;51.870;6.160;2022-11-23T10:41:22;8.95;;;2.25;;
4448;SDS011;2237;51.870;6.160;2022-11-23T10:46:56;7.53;;;1.08;;
4448;SDS011;2237;51.870;6.160;2022-11-23T10:51:52;6.15;;;2.30;;
4448;SDS011;2237;51.870;6.160;2022-11-23T10:54:26;6.43;;;1.58;;
4448;SDS011;2237;51.870;6.160;2022-11-23T10:56:56;7.78;;;0.82;;
4448;SDS011;2237;51.870;6.160;2022-11-23T10:59:24;6.85;;;0.80;;
4448;SDS011;2237;51.870;6.160;2022-11-23T11:04:45;6.00;;;0.85;;
4448;SDS011;2237;51.870;6.160;2022-11-23T11:07:23;7.35;;;1.48;;
4448;SDS011;2237;51.870;6.160;2022-11-23T11:10:00;4.10;;;1.03;;
4448;SDS011;2237;51.870;6.160;2022-11-23T11:12:29;5.70;;;0.50;;
4448;SDS011;2237;51.870;6.160;2022-11-23T11:15:14;9.02;;;1.52;;
4448;SDS011;2237;51.870;6.160;2022-11-23T11:17:42;2.58;;;0.73;;
4448;SDS011;2237;51.870;6.160;2022-11-23T11:20:28;4.97;;;1.13;;
4448;SDS011;2237;51.870;6.160;2022-11-23T11:22:54;9.60;;;1.25;;
4448;SDS011;2237;51.870;6.160;2022-11-23T11:27:57;17.63;;;7.82;;
4448;SDS011;2237;51.870;6.160;2022-11-23T11:30:25;15.68;;;6.65;;
4448;SDS011;2237;51.870;6.160;2022-11-23T11:33:01;11.18;;;2.40;;
4448;SDS011;2237;51.870;6.160;2022-11-23T11:35:36;9.10;;;1.40;;
4448;SDS011;2237;51.870;6.160;2022-11-23T11:38:14;5.90;;;1.57;;
4448;SDS011;2237;51.870;6.160;2022-11-23T11:40:48;3.67;;;0.70;;
4448;SDS011;2237;51.870;6.160;2022-11-23T11:43:31;12.77;;;1.45;;
4448;SDS011;2237;51.870;6.160;2022-11-23T11:46:16;6.45;;;0.90;;
4448;SDS011;2237;51.870;6.160;2022-11-23T11:48:56;5.07;;;0.75;;
4448;SDS011;2237;51.870;6.160;2022-11-23T11:51:29;6.45;;;1.00;;
4448;SDS011;2237;51.870;6.160;2022-11-23T11:56:53;8.65;;;1.38;;
4448;SDS011;2237;51.870;6.160;2022-11-23T11:59:28;5.80;;;0.73;;
4448;SDS011;2237;51.870;6.160;2022-11-23T12:04:56;4.93;;;0.75;;
4448;SDS011;2237;51.870;6.160;2022-11-23T12:10:37;8.45;;;0.75;;
4448;SDS011;2237;51.870;6.160;2022-11-23T12:13:08;4.80;;;0.60;;
4448;SDS011;2237;51.870;6.160;2022-11-23T12:15:49;4.22;;;0.63;;
4448;SDS011;2237;51.870;6.160;2022-11-23T12:18:41;3.88;;;0.68;;
4448;SDS011;2237;51.870;6.160;2022-11-23T12:24:34;6.35;;;1.33;;
4448;SDS011;2237;51.870;6.160;2022-11-23T12:27:15;7.47;;;1.40;;
4448;SDS011;2237;51.870;6.160;2022-11-23T12:59:22;6.03;;;0.73;;
4448;SDS011;2237;51.870;6.160;2022-11-23T13:01:53;2.20;;;0.55;;
4448;SDS011;2237;51.870;6.160;2022-11-23T13:04:47;6.35;;;0.80;;
4448;SDS011;2237;51.870;6.160;2022-11-23T13:18:55;7.22;;;1.02;;
4448;SDS011;2237;51.870;6.160;2022-11-23T13:24:24;9.98;;;1.60;;
4448;SDS011;2237;51.870;6.160;2022-11-23T13:43:11;5.65;;;0.95;;
4448;SDS011;2237;51.870;6.160;2022-11-23T13:45:39;6.38;;;1.52;;
4448;SDS011;2237;51.870;6.160;2022-11-23T13:50:56;2.08;;;0.60;;
4448;SDS011;2237;51.870;6.160;2022-11-23T13:53:34;5.95;;;1.13;;
4448;SDS011;2237;51.870;6.160;2022-11-23T13:58:52;3.08;;;0.77;;
4448;SDS011;2237;51.870;6.160;2022-11-23T14:04:25;5.93;;;0.95;;
4448;SDS011;2237;51.870;6.160;2022-11-23T14:06:57;6.05;;;0.95;;
4448;SDS011;2237;51.870;6.160;2022-11-23T14:09:58;2.92;;;0.70;;
4448;SDS011;2237;51.870;6.160;2022-11-23T14:12:36;3.65;;;0.50;;
4448;SDS011;2237;51.870;6.160;2022-11-23T14:15:23;5.90;;;1.15;;
4448;SDS011;2237;51.870;6.160;2022-11-23T14:17:56;6.95;;;1.30;;
4448;SDS011;2237;51.870;6.160;2022-11-23T14:20:45;5.60;;;1.10;;
4448;SDS011;2237;51.870;6.160;2022-11-23T14:33:54;4.95;;;0.93;;
4448;SDS011;2237;51.870;6.160;2022-11-23T14:36:42;4.78;;;0.68;;
4448;SDS011;2237;51.870;6.160;2022-11-23T14:42:07;5.50;;;1.00;;
4448;SDS011;2237;51.870;6.160;2022-11-23T14:44:38;4.82;;;1.50;;
4448;SDS011;2237;51.870;6.160;2022-11-23T14:47:07;6.63;;;0.85;;
4448;SDS011;2237;51.870;6.160;2022-11-23T14:49:34;4.00;;;0.90;;
4448;SDS011;2237;51.870;6.160;2022-11-23T14:52:02;11.57;;;1.55;;
4448;SDS011;2237;51.870;6.160;2022-11-23T14:54:29;7.00;;;1.50;;
4448;SDS011;2237;51.870;6.160;2022-11-23T14:56:58;5.85;;;1.45;;
4448;SDS011;2237;51.870;6.160;2022-11-23T14:59:37;3.80;;;1.07;;
4448;SDS011;2237;51.870;6.160;2022-11-23T15:02:22;4.93;;;0.90;;
4448;SDS011;2237;51.870;6.160;2022-11-23T15:05:00;4.28;;;0.98;;
4448;SDS011;2237;51.870;6.160;2022-11-23T15:07:41;5.28;;;1.15;;
4448;SDS011;2237;51.870;6.160;2022-11-23T15:12:54;7.50;;;1.23;;
4448;SDS011;2237;51.870;6.160;2022-11-23T15:15:22;4.10;;;0.82;;
4448;SDS011;2237;51.870;6.160;2022-11-23T15:18:00;10.57;;;1.27;;
4448;SDS011;2237;51.870;6.160;2022-11-23T15:20:34;6.72;;;1.13;;
4448;SDS011;2237;51.870;6.160;2022-11-23T15:23:17;4.00;;;1.25;;
4448;SDS011;2237;51.870;6.160;2022-11-23T15:25:52;5.72;;;1.38;;
4448;SDS011;2237;51.870;6.160;2022-11-23T15:28:26;6.28;;;1.70;;
4448;SDS011;2237;51.870;6.160;2022-11-23T15:30:54;7.30;;;1.00;;
4448;SDS011;2237;51.870;6.160;2022-11-23T15:33:24;7.80;;;1.33;;
4448;SDS011;2237;51.870;6.160;2022-11-23T15:35:51;5.55;;;1.27;;
4448;SDS011;2237;51.870;6.160;2022-11-23T15:38:18;3.20;;;1.15;;
4448;SDS011;2237;51.870;6.160;2022-11-23T15:40:49;8.07;;;1.55;;
4448;SDS011;2237;51.870;6.160;2022-11-23T15:43:19;6.03;;;1.40;;
4448;SDS011;2237;51.870;6.160;2022-11-23T15:48:12;5.25;;;1.35;;
4448;SDS011;2237;51.870;6.160;2022-11-23T15:50:45;7.50;;;1.45;;
4448;SDS011;2237;51.870;6.160;2022-11-23T15:53:20;4.28;;;1.30;;
4448;SDS011;2237;51.870;6.160;2022-11-23T15:55:52;3.75;;;1.17;;
4448;SDS011;2237;51.870;6.160;2022-11-23T15:58:19;6.88;;;1.98;;
4448;SDS011;2237;51.870;6.160;2022-11-23T16:00:47;4.13;;;1.20;;
4448;SDS011;2237;51.870;6.160;2022-11-23T16:06:24;5.30;;;1.55;;
4448;SDS011;2237;51.870;6.160;2022-11-23T16:08:59;5.28;;;1.10;;
4448;SDS011;2237;51.870;6.160;2022-11-23T16:11:30;5.20;;;1.30;;
4448;SDS011;2237;51.870;6.160;2022-11-23T16:16:38;4.30;;;1.25;;
4448;SDS011;2237;51.870;6.160;2022-11-23T16:19:24;5.50;;;1.20;;
4448;SDS011;2237;51.870;6.160;2022-11-23T16:21:55;4.05;;;1.20;;
4448;SDS011;2237;51.870;6.160;2022-11-23T16:24:28;6.53;;;1.23;;
4448;SDS011;2237;51.870;6.160;2022-11-23T16:26:57;5.45;;;0.95;;
4448;SDS011;2237;51.870;6.160;2022-11-23T16:29:25;2.63;;;0.80;;
4448;SDS011;2237;51.870;6.160;2022-11-23T16:31:55;2.83;;;0.83;;
4448;SDS011;2237;51.870;6.160;2022-11-23T16:34:24;2.63;;;0.80;;
4448;SDS011;2237;51.870;6.160;2022-11-23T16:36:53;3.33;;;0.90;;
4448;SDS011;2237;51.870;6.160;2022-11-23T16:39:24;3.17;;;0.90;;
4448;SDS011;2237;51.870;6.160;2022-11-23T16:41:51;3.08;;;0.60;;
4448;SDS011;2237;51.870;6.160;2022-11-23T16:44:17;3.13;;;0.80;;
4448;SDS011;2237;51.870;6.160;2022-11-23T16:46:45;4.07;;;1.00;;
4448;SDS011;2237;51.870;6.160;2022-11-23T16:49:13;4.15;;;1.00;;
4448;SDS011;2237;51.870;6.160;2022-11-23T16:51:42;7.45;;;1.30;;
4448;SDS011;2237;51.870;6.160;2022-11-23T16:54:09;4.20;;;1.05;;
4448;SDS011;2237;51.870;6.160;2022-11-23T16:56:41;5.47;;;1.20;;
4448;SDS011;2237;51.870;6.160;2022-11-23T16:59:17;4.13;;;1.17;;
4448;SDS011;2237;51.870;6.160;2022-11-23T17:01:44;3.03;;;0.82;;
4448;SDS011;2237;51.870;6.160;2022-11-23T17:04:19;5.80;;;1.60;;
4448;SDS011;2237;51.870;6.160;2022-11-23T17:06:45;3.75;;;1.40;;
4448;SDS011;2237;51.870;6.160;2022-11-23T17:09:12;6.72;;;1.52;;
4448;SDS011;2237;51.870;6.160;2022-11-23T17:11:39;7.57;;;2.00;;
4448;SDS011;2237;51.870;6.160;2022-11-23T17:14:11;5.95;;;2.03;;
4448;SDS011;2237;51.870;6.160;2022-11-23T17:16:44;4.18;;;2.15;;
4448;SDS011;2237;51.870;6.160;2022-11-23T17:19:14;9.00;;;2.53;;
4448;SDS011;2237;51.870;6.160;2022-11-23T17:21:42;7.22;;;2.80;;
4448;SDS011;2237;51.870;6.160;2022-11-23T17:24:09;9.23;;;2.90;;
4448;SDS011;2237;51.870;6.160;2022-11-23T17:26:37;4.57;;;2.20;;
4448;SDS011;2237;51.870;6.160;2022-11-23T17:29:06;4.47;;;2.50;;
4448;SDS011;2237;51.870;6.160;2022-11-23T17:31:37;7.47;;;2.60;;
4448;SDS011;2237;51.870;6.160;2022-11-23T17:34:03;5.75;;;2.78;;
4448;SDS011;2237;51.870;6.160;2022-11-23T17:36:30;10.23;;;3.80;;
4448;SDS011;2237;51.870;6.160;2022-11-23T17:38:57;4.57;;;3.33;;
4448;SDS011;2237;51.870;6.160;2022-11-23T17:41:23;7.63;;;3.40;;
4448;SDS011;2237;51.870;6.160;2022-11-23T17:43:50;8.10;;;3.33;;
4448;SDS011;2237;51.870;6.160;2022-11-23T17:46:17;17.25;;;7.50;;
4448;SDS011;2237;51.870;6.160;2022-11-23T17:48:50;11.35;;;4.60;;
4448;SDS011;2237;51.870;6.160;2022-11-23T17:51:21;6.13;;;2.72;;
4448;SDS011;2237;51.870;6.160;2022-11-23T17:53:48;4.95;;;2.95;;